createdAt,value
2023-05-01T00:03:25.141Z,0.88715
2023-05-01T00:08:26.610Z,0
2023-05-01T00:13:28.098Z,0
2023-05-01T00:18:29.573Z,0
2023-05-01T00:23:30.838Z,0.88715
2023-05-01T00:28:32.300Z,0
2023-05-01T00:33:33.874Z,0
2023-05-01T00:38:35.115Z,0
2023-05-01T00:43:36.373Z,0
2023-05-01T00:48:37.672Z,0
2023-05-01T00:53:39.129Z,0
2023-05-01T00:58:40.460Z,0
2023-05-01T01:03:41.929Z,0
2023-05-01T01:08:43.588Z,0
2023-05-01T01:13:45.213Z,0
2023-05-01T01:18:46.776Z,0
2023-05-01T01:23:48.341Z,0
2023-05-01T01:28:49.925Z,0
2023-05-01T01:33:51.484Z,0
2023-05-01T01:38:53.038Z,0
2023-05-01T01:43:54.801Z,0.88715
2023-05-01T01:48:56.460Z,0
2023-05-01T01:53:57.725Z,0
2023-05-01T01:58:59.404Z,0
2023-05-01T02:04:01.095Z,0
2023-05-01T02:09:02.849Z,0
2023-05-01T02:14:04.437Z,0
2023-05-01T02:19:06.032Z,0
2023-05-01T02:24:07.701Z,0
2023-05-01T02:29:09.502Z,0
2023-05-01T02:34:11.085Z,0
2023-05-01T02:39:12.643Z,0
2023-05-01T02:44:14.267Z,0.88715
2023-05-01T02:49:15.831Z,0.88715
2023-05-01T02:54:17.089Z,0
2023-05-01T02:59:18.527Z,0
2023-05-01T03:04:19.916Z,0.88715
2023-05-01T03:09:21.325Z,0
2023-05-01T03:14:22.671Z,0
2023-05-01T03:19:23.892Z,0
2023-05-01T03:24:25.130Z,0
2023-05-01T03:29:26.599Z,0
2023-05-01T03:34:27.830Z,0
2023-05-01T03:39:29.397Z,0
2023-05-01T03:44:30.735Z,0
2023-05-01T03:49:32.337Z,0
2023-05-01T03:54:33.607Z,0.88715
2023-05-01T03:59:34.899Z,0.88715
2023-05-01T04:04:36.492Z,0.88715
2023-05-01T04:09:38.082Z,0
2023-05-01T04:14:39.860Z,2.3237
2023-05-01T04:19:41.331Z,1.2444
2023-05-01T04:24:42.709Z,5.3852
2023-05-01T04:29:44.146Z,8.4467
2023-05-01T04:34:45.400Z,22.3889
2023-05-01T04:39:46.967Z,30.8356
2023-05-01T04:44:48.569Z,43.9297
2023-05-01T04:49:50.223Z,65.39635
2023-05-01T04:54:51.775Z,86.43895
2023-05-01T04:59:53.372Z,102.4101
2023-05-01T05:04:55.052Z,122.53045
2023-05-01T05:09:56.967Z,137.45005
2023-05-01T05:14:58.753Z,155.81905
2023-05-01T05:20:00.297Z,164.76395
2023-05-01T05:25:01.989Z,171.9765
2023-05-01T05:30:03.564Z,207.7334
2023-05-01T05:35:05.149Z,221.51015
2023-05-01T05:40:06.817Z,229.4262
2023-05-01T05:45:08.391Z,254.0628
2023-05-01T05:50:10.124Z,289.7094
2023-05-01T05:55:11.752Z,305.93915
2023-05-01T06:00:13.327Z,306.88225
2023-05-01T06:05:14.928Z,314.73945
2023-05-01T06:10:16.484Z,321.93115
2023-05-01T06:15:17.740Z,326.7477
2023-05-01T06:20:19.029Z,332.2812
2023-05-01T06:25:20.351Z,293.03875
2023-05-01T06:30:21.802Z,293.85255
2023-05-01T06:35:23.077Z,233.05915
2023-05-01T06:40:24.338Z,220.6744
2023-05-01T06:45:25.580Z,190.86795
2023-05-01T06:50:26.911Z,234.005
2023-05-01T06:55:28.205Z,245.29075
2023-05-01T07:00:29.492Z,259.56755
2023-05-01T07:05:30.839Z,303.735
2023-05-01T07:10:32.446Z,352.1865
2023-05-01T07:15:33.806Z,506.2996
2023-05-01T07:20:35.356Z,411.46355
2023-05-01T07:25:36.711Z,442.7422
2023-05-01T07:30:38.186Z,343.85195
2023-05-01T07:35:39.695Z,599.89225
2023-05-01T07:40:40.983Z,375.69925
2023-05-01T07:45:42.496Z,362.44155
2023-05-01T07:50:43.759Z,443.10925
2023-05-01T07:55:45.079Z,678.8276
2023-05-01T08:00:46.358Z,509.75505
2023-05-01T08:05:47.698Z,466.4394
2023-05-01T08:10:49.347Z,476.79735
2023-05-01T08:15:50.919Z,614.54585
2023-05-01T08:20:52.526Z,798.72245
2023-05-01T08:25:54.125Z,852.94705
2023-05-01T08:30:55.829Z,619.3471
2023-05-01T08:35:57.406Z,634.93035
2023-05-01T08:40:58.884Z,580.94535
2023-05-01T08:46:00.614Z,604.7394
2023-05-01T08:51:02.208Z,1162.62615
2023-05-01T08:56:03.781Z,1254.5796
2023-05-01T09:01:05.494Z,1031.9688
2023-05-01T09:06:07.111Z,685.27595
2023-05-01T09:11:08.597Z,886.0628
2023-05-01T09:16:10.226Z,1073.9701
2023-05-01T09:21:11.793Z,545.84655
2023-05-01T09:26:13.353Z,818.52165
2023-05-01T09:31:14.991Z,658.25495
2023-05-01T09:36:16.550Z,777.17795
2023-05-01T09:41:17.931Z,699.60605
2023-05-01T09:46:19.233Z,1256.907
2023-05-01T09:51:20.705Z,1339.01045
2023-05-01T09:56:22.254Z,1445.9785
2023-05-01T10:16:24.813Z,866.98105
2023-05-01T10:21:26.079Z,1394.1879
2023-05-01T10:26:27.444Z,1523.65885
2023-05-01T10:31:28.792Z,1186.01935
2023-05-01T10:36:30.151Z,1573.668
2023-05-01T10:41:31.516Z,963.0077
2023-05-01T10:46:33.106Z,1724.74465
2023-05-01T10:51:34.489Z,1724.46705
2023-05-01T10:56:35.840Z,1744.5494
2023-05-01T11:01:37.333Z,1754.4791
2023-05-01T11:06:38.770Z,1799.21335
2023-05-01T11:11:40.333Z,1775.20425
2023-05-01T11:16:41.814Z,1859.94515
2023-05-01T11:21:43.245Z,1838.7181
2023-05-01T11:26:44.488Z,1827.2326
2023-05-01T11:31:46.186Z,1487.6457
2023-05-01T11:36:47.609Z,1816.3519
2023-05-01T11:41:49.195Z,971.2908
2023-05-01T11:46:50.544Z,1371.6475
2023-05-01T11:51:51.893Z,1597.06675
2023-05-01T11:56:53.170Z,1772.43195
2023-05-01T12:01:54.633Z,1986.1609
2023-05-01T12:06:55.933Z,1975.05405
2023-05-01T12:11:57.433Z,740.12485
2023-05-01T12:16:58.921Z,1912.51575
2023-05-01T12:22:00.434Z,1894.25335
2023-05-01T12:27:01.993Z,1908.15755
2023-05-01T12:32:03.593Z,1973.49875
2023-05-01T12:37:05.505Z,2007.83705
2023-05-01T12:42:06.868Z,1848.481
2023-05-01T12:47:08.130Z,1291.26715
2023-05-01T12:52:09.600Z,1920.51385
2023-05-01T12:57:10.944Z,1788.8522
2023-05-01T13:02:12.601Z,866.78365
2023-05-01T13:07:13.998Z,1222.76945
2023-05-01T13:12:15.729Z,1699.2776
2023-05-01T13:17:17.394Z,1753.1449
2023-05-01T13:22:19.151Z,761.29305
2023-05-01T13:27:21.053Z,1510.31455
2023-05-01T13:32:23.421Z,1420.44335
2023-05-01T13:37:25.810Z,1243.7036
2023-05-01T13:42:28.404Z,1413.1205
2023-05-01T13:47:30.985Z,1379.0561
2023-05-01T13:52:33.545Z,1296.8215
2023-05-01T13:57:35.593Z,1190.42765
2023-05-01T14:02:37.825Z,1102.882
2023-05-01T14:07:40.282Z,1008.1618
2023-05-01T14:12:42.644Z,905.2725
2023-05-01T14:17:44.966Z,561.67545
2023-05-01T14:22:46.902Z,697.70455
2023-05-01T14:27:48.993Z,628.52605
2023-05-01T14:32:51.354Z,478.1988
2023-05-01T14:37:53.301Z,354.73685
2023-05-01T14:42:54.844Z,240.8774
2023-05-01T14:47:56.420Z,193.89
2023-05-01T14:52:57.998Z,168.06505
2023-05-01T14:57:59.540Z,121.4979
2023-05-01T15:03:00.885Z,110.56205
2023-05-01T15:08:02.288Z,95.477
2023-05-01T15:13:03.566Z,79.87475
2023-05-01T15:18:05.320Z,57.1721
2023-05-01T15:23:07.072Z,40.5183
2023-05-01T15:28:08.605Z,31.2045
2023-05-01T15:33:10.041Z,21.0426
2023-05-01T15:38:11.384Z,17.79665
2023-05-01T15:43:12.956Z,7.52445
2023-05-01T15:48:14.640Z,3.85445
2023-05-01T15:53:16.470Z,2.3237
2023-05-01T15:58:18.301Z,0
2023-05-01T16:03:20.147Z,0.88715
2023-05-01T16:08:21.585Z,0.88715
2023-05-01T16:13:23.215Z,0.88715
2023-05-01T16:18:24.988Z,0
2023-05-01T16:23:26.398Z,0
2023-05-01T16:28:27.868Z,0
2023-05-01T16:33:29.267Z,0
2023-05-01T16:38:30.687Z,0
2023-05-01T16:43:32.044Z,0
2023-05-01T16:48:33.754Z,0
2023-05-01T16:53:35.716Z,0.88715
2023-05-01T16:58:37.619Z,0.88715
2023-05-01T17:03:39.404Z,0.88715
2023-05-01T17:08:41.392Z,0.88715
2023-05-01T17:13:43.232Z,0.88715
2023-05-01T17:18:45.461Z,0.88715
2023-05-01T17:23:48.204Z,0.88715
2023-05-01T17:28:50.541Z,0.88715
2023-05-01T17:33:52.671Z,0.88715
2023-05-01T17:38:54.687Z,0.88715
2023-05-01T17:43:56.736Z,0.88715
2023-05-01T17:48:58.780Z,0.88715
2023-05-01T17:54:00.875Z,0.88715
2023-05-01T17:59:02.902Z,0.88715
2023-05-01T18:04:05.124Z,0
2023-05-01T18:09:07.244Z,0
2023-05-01T18:14:09.233Z,0
2023-05-01T18:19:11.259Z,0
2023-05-01T18:24:13.576Z,0.88715
2023-05-01T18:29:16.124Z,0.88715
2023-05-01T18:34:18.647Z,0
2023-05-01T18:39:21.027Z,0
2023-05-01T18:44:23.380Z,0
2023-05-01T18:49:26.130Z,0
2023-05-01T18:54:28.877Z,0
2023-05-01T18:59:31.527Z,0
2023-05-01T19:04:40.235Z,0
2023-05-01T19:09:51.678Z,0
2023-05-01T19:14:54.028Z,0.88715
2023-05-01T19:19:56.064Z,0
2023-05-01T19:24:58.567Z,0
2023-05-01T19:30:01.699Z,0.88715
2023-05-01T19:35:04.218Z,0
2023-05-01T19:40:06.508Z,0
2023-05-01T19:45:09.259Z,0
2023-05-01T19:50:11.569Z,0
2023-05-01T19:55:13.331Z,0
2023-05-01T20:00:15.268Z,0
2023-05-01T20:05:16.843Z,0
2023-05-01T20:10:18.267Z,0
2023-05-01T20:15:19.848Z,0.88715
2023-05-01T20:20:21.369Z,0
2023-05-01T20:25:22.656Z,0
2023-05-01T20:30:23.992Z,0
2023-05-01T20:35:25.282Z,0
2023-05-01T20:40:26.562Z,0
2023-05-01T20:45:27.817Z,0
2023-05-01T20:50:29.249Z,0
2023-05-01T20:55:30.696Z,0
2023-05-01T21:00:31.968Z,0
2023-05-01T21:05:33.469Z,0
2023-05-01T21:10:34.741Z,0
2023-05-01T21:15:36.160Z,0
2023-05-01T21:20:37.615Z,0
2023-05-01T21:25:39.105Z,0
2023-05-01T21:30:40.673Z,0
2023-05-01T21:35:42.236Z,0
2023-05-01T21:40:43.775Z,0
2023-05-01T21:45:45.378Z,0
2023-05-01T21:50:46.986Z,0
2023-05-01T21:55:48.215Z,0
2023-05-01T22:00:49.559Z,0
2023-05-01T22:05:51.045Z,0
2023-05-01T22:10:52.324Z,0
2023-05-01T22:15:53.859Z,0
2023-05-01T22:20:55.447Z,0
2023-05-01T22:25:57.020Z,0
2023-05-01T22:30:58.572Z,0
2023-05-01T22:36:00.144Z,0
2023-05-01T22:41:01.767Z,0.88715
2023-05-01T22:46:03.319Z,0
2023-05-01T22:51:04.954Z,0
2023-05-01T22:56:06.584Z,0
2023-05-01T23:01:07.971Z,0
2023-05-01T23:06:09.478Z,0.88715
2023-05-01T23:11:10.844Z,0
2023-05-01T23:16:12.148Z,0
2023-05-01T23:21:13.691Z,0
2023-05-01T23:26:15.348Z,0
2023-05-01T23:31:16.960Z,0.88715
2023-05-01T23:36:18.605Z,0.88715
2023-05-01T23:41:20.169Z,0
2023-05-01T23:46:21.825Z,0
2023-05-01T23:51:23.520Z,0.88715
2023-05-01T23:56:25.212Z,0
